Airfield :
LOGIN :

Register | Disclaimer

   EN    FR    IT 

 










Legend :    VFR   Marginal VFR   IFR   Intensive IFR   Very Intensive IFR
Visi :
Ceiling :
>= 8 km
>= 3000ft
5 to 8 km
1000 to 3000 ft
1500m to 5 km
500 to 1000 ft
800 to 1500m
200 to 500 ft
< 800m
< 200 ft
Symbols :   Thunderstorms  Fog  Heavy snow  Heavy precipitations  Wind > 20 kt
SIGMETs :     Misc.  Thunderstorms  Icing  Turbulence  Mountain Waves  Volcanic Ashes






- Airport Elevation : 325 ft
- IATA code : BES


LFRB - Brest

CURRENT METAR :
  • 301030Z AUTO 21011KT 9999 BKN007 BKN015 OVC100 14/13 Q1012 BECMG SCT005 BKN020

EXPIRED METARs :
  • 301000Z AUTO 21010KT 9999 SCT007 BKN014 BKN023 13/13 Q1012 BECMG SCT005 BKN020
  • 300930Z AUTO 20008KT 9000 BKN004 OVC009 13/13 Q1012 BECMG SCT005 BKN020
  • 300900Z AUTO 19008KT 7000 OVC003 13/12 Q1012 BECMG SCT005 BKN020
  • 300830Z AUTO 19008KT 4100 BR VV/// 12/12 Q1012 BECMG 9999 NSW SCT005 BKN020
  • 300800Z AUTO 18007KT 0750 R25/1900U R07/1100U FG VV/// 12/12 Q1012 BECMG 9999 NSW SCT005 BKN020

TAF TAF LFRB
Valid from the 30 at 06:00 until the 01 at 12:00 UTC


300500Z 3006/0112 VRB03KT 0600 FG VV///
TEMPO 3006/3009 0200 FG VV///
BECMG 3008/3011 9999 NSW SCT005 BKN020
BECMG 3014/3016 24015G28KT OVC010
TEMPO 3016/0103 3000 -RADZ OVC005
PROB40
TEMPO 3017/0102 BKN002
BECMG 0103/0106 27010KT NSW BKN015
PROB40
TEMPO 0110/0112 4000 -RA BKN005
ATIS : +33 2 98 32 02 71



MET'MAP, your aeronautical weather chart ! - Copyright ORBIFLY December 2007 - Disclaimer

ORBIFLY MET'MAP TEAM :

Programming & Development : Alexandra Zaïnal
Original concept : Baudouin d'Aumeries
Technical & hardware support : Manuel Goepfert
Assistance : Marc-Olivier Méhu




SOURCES & CREDITS :

   NOAA